Terminal Aerodrome Forecast
Issued by NWS

Home | Current Version | Previous Version | Text Only | Print | Product List | Glossary On
Versions: 1 2 3 4 5 6 7 8 9 10 11 12 13 14 15 16 17
000
FTUS44 KLZK 211139
TAFADF
TAF
KADF 211139Z 2112/2212 18007KT P6SM OVC012 WS020/19040KT
      TEMPO 2112/2115 6SM -DZ OVC008
     FM211500 18009G17KT P6SM VCSH OVC015
     FM212100 18010G20KT P6SM -SHRA OVC040
      TEMPO 2200/2204 5SM TSRA BR OVC025CB
     FM220600 21010G17KT 5SM SHRA BR OVC025=

USA.gov is the U.S. government's official web portal to all federal, state and local government web resources and services.